Time;durP1;ratioP1;P1;durP2;ratioP2;P2;SDS_P1;SDS_P2;PMS_P1;PMS_P2;Temp;Humidity;BMP_temperature;BMP_pressure;BME280_temperature;BME280_humidity;BME280_pressure;Samples;Min_cycle;Max_cycle;Signal;HPM_P1;HPM_P2
2022/08/17 00:01:54;;;;;;;;;;;;;;;26.97;55.18;97369.75;5118462;28;20011;-60
2022/08/17 00:04:21;;;;;;;;;;;;;;;26.92;55.38;97380.28;5119706;28;19930;-60
2022/08/17 00:06:49;;;;;;;;;;;;;;;26.55;55.99;97378.47;5122073;28;19932;-60
2022/08/17 00:09:16;;;;;;;;;;;;;;;26.67;56.19;97378.16;5121625;28;19951;-60
2022/08/17 00:11:43;;;;;;;;;;;;;;;26.52;56.47;97376.44;5118672;28;19924;-60
2022/08/17 00:14:11;;;;;;;;;;;;;;;26.20;57.11;97386.38;5118552;28;19924;-61
2022/08/17 00:16:40;;;;;;;;;;;;;;;26.21;57.74;97382.47;5121878;28;20490;-61
2022/08/17 00:19:07;;;;;;;;;;;;;;;26.27;57.96;97381.72;5122110;28;19946;-61
2022/08/17 00:21:34;;;;;;;;;;;;;;;26.70;56.87;97377.41;5118987;28;19924;-60
2022/08/17 00:24:02;;;;;;;;;;;;;;;26.90;56.35;97379.88;5124936;27;19928;-61
2022/08/17 00:26:29;;;;;;;;;;;;;;;27.06;55.77;97377.63;5123168;28;19920;-60
2022/08/17 00:28:55;;;;;;;;;;;;;;;27.10;55.56;97376.47;5121913;28;19923;-60
2022/08/17 00:31:22;;;;;;;;;;;;;;;27.12;55.48;97376.88;5120731;28;19958;-60
2022/08/17 00:33:49;;;;;;;;;;;;;;;27.15;55.44;97380.81;5118427;28;19920;-60
2022/08/17 00:36:16;;;;;;;;;;;;;;;27.12;55.40;97376.88;5118656;28;19924;-60
2022/08/17 00:38:43;;;;;;;;;;;;;;;27.13;55.75;97374.94;5121836;28;20392;-62
2022/08/17 00:41:12;;;;;;;;;;;;;;;27.09;55.75;97376.84;5121720;28;19987;-60
2022/08/17 00:43:41;;;;;;;;;;;;;;;27.11;55.47;97375.28;5110021;28;19974;-60
2022/08/17 00:46:09;;;;;;;;;;;;;;;27.09;55.50;97376.84;5109974;28;19924;-61
2022/08/17 00:48:36;;;;;;;;;;;;;;;27.08;55.38;97378.81;5109832;28;19931;-60
2022/08/17 00:51:06;;;;;;;;;;;;;;;27.02;55.61;97376.84;5109866;28;19931;-61
2022/08/17 00:53:34;;;;;;;;;;;;;;;27.07;55.37;97380.00;5109845;28;19992;-59
2022/08/17 00:56:02;;;;;;;;;;;;;;;27.10;55.28;97381.19;5127994;28;20015;-60
2022/08/17 00:58:30;;;;;;;;;;;;;;;26.92;55.80;97383.03;5120406;28;19971;-61
2022/08/17 01:01:00;;;;;;;;;;;;;;;26.81;56.03;97378.28;5121669;28;19951;-60
2022/08/17 01:03:26;;;;;;;;;;;;;;;26.87;56.01;97377.91;5122691;28;19924;-61
2022/08/17 01:05:54;;;;;;;;;;;;;;;26.79;56.30;97379.78;5121762;28;19960;-61
2022/08/17 01:08:23;;;;;;;;;;;;;;;26.89;56.17;97378.31;5122828;28;19991;-60
2022/08/17 01:10:52;;;;;;;;;;;;;;;26.92;56.12;97370.13;5125426;28;19924;-60
2022/08/17 01:13:19;;;;;;;;;;;;;;;26.88;56.29;97376.75;5124381;28;19924;-60
2022/08/17 01:15:49;;;;;;;;;;;;;;;26.88;56.36;97372.06;5121738;28;19924;-61
2022/08/17 01:18:15;;;;;;;;;;;;;;;26.90;56.40;97361.47;5121707;28;20027;-61
2022/08/17 01:20:45;;;;;;;;;;;;;;;26.92;56.26;97367.38;5125212;28;19994;-60
2022/08/17 01:23:12;;;;;;;;;;;;;;;26.83;56.64;97370.44;5125090;28;19954;-60
2022/08/17 01:25:39;;;;;;;;;;;;;;;26.81;56.67;97369.25;5131313;27;19959;-61
2022/08/17 01:28:05;;;;;;;;;;;;;;;26.78;56.88;97368.03;5121472;28;19952;-59
2022/08/17 01:30:32;;;;;;;;;;;;;;;26.79;56.69;97374.31;5124339;28;19970;-61
2022/08/17 01:32:58;;;;;;;;;;;;;;;26.74;56.92;97366.44;5124810;28;19923;-61
2022/08/17 01:35:25;;;;;;;;;;;;;;;26.57;56.94;97367.91;5123061;28;19924;-61
2022/08/17 01:37:51;;;;;;;;;;;;;;;26.47;56.80;97382.28;5120881;28;19971;-60
2022/08/17 01:40:22;;;;;;;;;;;;;;;26.39;57.29;97383.41;5121936;28;19935;-60
2022/08/17 01:42:51;;;;;;;;;;;;;;;26.49;57.20;97387.41;5124919;28;19920;-61
2022/08/17 01:45:21;;;;;;;;;;;;;;;26.54;56.90;97379.63;5124020;28;19983;-60
2022/08/17 01:47:48;;;;;;;;;;;;;;;26.54;56.97;97378.81;5121299;28;19977;-61
2022/08/17 01:50:16;;;;;;;;;;;;;;;26.27;56.82;97376.25;5121351;28;20510;-60
2022/08/17 01:52:43;;;;;;;;;;;;;;;25.89;58.56;97378.59;5124823;28;19959;-61
2022/08/17 01:55:10;;;;;;;;;;;;;;;26.01;58.73;97373.66;5134160;27;19924;-60
2022/08/17 01:57:37;;;;;;;;;;;;;;;26.17;58.18;97376.19;5121185;28;19959;-60
2022/08/17 02:00:05;;;;;;;;;;;;;;;26.28;57.54;97377.03;5121057;28;19955;-60
2022/08/17 02:02:31;;;;;;;;;;;;;;;26.43;57.05;97377.97;5123371;28;19928;-60
2022/08/17 02:04:58;;;;;;;;;;;;;;;26.34;57.19;97366.56;5124224;28;20023;-60
2022/08/17 02:07:25;;;;;;;;;;;;;;;26.05;57.27;97363.53;5122571;28;19986;-60
2022/08/17 02:09:51;;;;;;;;;;;;;;;26.19;57.49;97368.38;5120734;28;19931;-61
2022/08/17 02:12:17;;;;;;;;;;;;;;;25.95;57.44;97366.16;5121022;28;20371;-60
2022/08/17 02:14:45;;;;;;;;;;;;;;;26.06;57.82;97367.03;5123993;28;19928;-60
2022/08/17 02:17:11;;;;;;;;;;;;;;;26.04;57.70;97366.63;5124077;28;19927;-60
2022/08/17 02:19:38;;;;;;;;;;;;;;;26.20;57.29;97354.31;5120418;28;19964;-59
2022/08/17 02:22:04;;;;;;;;;;;;;;;26.24;57.01;97359.81;5120429;28;19931;-60
2022/08/17 02:24:32;;;;;;;;;;;;;;;26.29;56.98;97356.72;5132631;27;19963;-59
2022/08/17 02:26:58;;;;;;;;;;;;;;;26.38;56.81;97356.41;5123842;28;19962;-60
2022/08/17 02:29:25;;;;;;;;;;;;;;;26.35;56.69;97351.69;5121874;28;19995;-60
2022/08/17 02:31:53;;;;;;;;;;;;;;;26.35;56.72;97352.47;5120087;28;20014;-60
2022/08/17 02:34:19;;;;;;;;;;;;;;;26.30;56.76;97350.84;5121061;28;19966;-60
2022/08/17 02:36:46;;;;;;;;;;;;;;;26.34;56.64;97345.41;5123292;28;19991;-60
2022/08/17 02:39:13;;;;;;;;;;;;;;;26.31;56.57;97348.91;5123377;28;19924;-59
2022/08/17 02:41:39;;;;;;;;;;;;;;;26.33;56.46;97345.81;5119923;28;19932;-60
2022/08/17 02:44:06;;;;;;;;;;;;;;;26.26;56.68;97335.59;5119829;28;19920;-60
2022/08/17 02:46:32;;;;;;;;;;;;;;;25.97;57.00;97341.94;5122512;28;19924;-60
2022/08/17 02:49:00;;;;;;;;;;;;;;;25.83;57.37;97341.81;5139367;27;19941;-61
2022/08/17 02:51:26;;;;;;;;;;;;;;;26.04;57.27;97350.22;5121335;28;19963;-60
2022/08/17 02:53:53;;;;;;;;;;;;;;;26.04;57.09;97350.22;5124021;27;19920;-60
2022/08/17 02:56:19;;;;;;;;;;;;;;;26.04;57.02;97348.28;5125814;27;19963;-60
2022/08/17 02:58:46;;;;;;;;;;;;;;;26.08;57.03;97342.84;5123324;28;19974;-60
2022/08/17 03:01:12;;;;;;;;;;;;;;;25.52;58.04;97341.13;5123204;28;19935;-61
2022/08/17 03:03:39;;;;;;;;;;;;;;;25.54;58.80;97338.78;5111192;28;19920;-60
2022/08/17 03:06:08;;;;;;;;;;;;;;;25.78;58.25;97337.47;5111173;28;19924;-60
2022/08/17 03:08:35;;;;;;;;;;;;;;;25.86;58.13;97343.78;5111113;28;19935;-61
2022/08/17 03:11:01;;;;;;;;;;;;;;;25.90;57.82;97341.88;5111165;28;19935;-60
2022/08/17 03:13:29;;;;;;;;;;;;;;;26.03;57.24;97332.22;5111030;28;19971;-61
2022/08/17 03:15:56;;;;;;;;;;;;;;;26.03;57.17;97337.69;5110891;28;19930;-59
2022/08/17 03:18:24;;;;;;;;;;;;;;;26.02;57.12;97336.94;5110808;28;20387;-60
2022/08/17 03:20:51;;;;;;;;;;;;;;;26.05;57.03;97335.38;5111104;28;19941;-60
2022/08/17 03:23:18;;;;;;;;;;;;;;;26.04;57.01;97331.06;5110775;28;19955;-61
2022/08/17 03:25:45;;;;;;;;;;;;;;;26.01;57.05;97340.81;5128693;27;19954;-60
2022/08/17 03:28:11;;;;;;;;;;;;;;;25.99;57.16;97336.88;5119099;28;19950;-60
2022/08/17 03:30:38;;;;;;;;;;;;;;;26.04;56.90;97339.28;5119132;28;19924;-61
2022/08/17 03:33:08;;;;;;;;;;;;;;;25.97;57.00;97334.53;5119037;28;19931;-61
2022/08/17 03:35:36;;;;;;;;;;;;;;;26.01;56.99;97329.88;5122073;28;19987;-60
2022/08/17 03:38:03;;;;;;;;;;;;;;;25.71;57.43;97334.66;5122397;28;19924;-61
2022/08/17 03:40:31;;;;;;;;;;;;;;;25.71;57.76;97338.19;5120252;28;19931;-59
2022/08/17 03:43:03;;;;;;;;;;;;;;;25.70;57.63;97344.81;5119125;28;19963;-59
2022/08/17 03:56:44;;;;;;;;;;;;;;;25.87;57.24;97339.91;5123159;28;20048;-61
2022/08/17 03:59:12;;;;;;;;;;;;;;;25.81;57.31;97333.22;5122451;28;19987;-61
2022/08/17 04:01:39;;;;;;;;;;;;;;;25.82;57.35;97323.81;5118939;28;19924;-60
2022/08/17 04:04:05;;;;;;;;;;;;;;;25.82;57.25;97334.75;5118696;28;20404;-61
2022/08/17 04:06:32;;;;;;;;;;;;;;;25.63;57.77;97336.53;5121477;28;19928;-62
2022/08/17 04:08:58;;;;;;;;;;;;;;;25.65;57.94;97339.69;5122277;28;19979;-61
2022/08/17 04:11:24;;;;;;;;;;;;;;;25.45;58.42;97334.72;5120664;28;19987;-60
2022/08/17 04:13:52;;;;;;;;;;;;;;;25.08;59.49;97349.13;5118850;28;19924;-60
2022/08/17 04:16:19;;;;;;;;;;;;;;;24.91;60.47;97346.19;5119446;28;19947;-60
2022/08/17 04:18:45;;;;;;;;;;;;;;;25.04;60.66;97340.09;5122293;28;19978;-60
2022/08/17 04:21:11;;;;;;;;;;;;;;;24.73;61.63;97345.88;5122242;28;19931;-60
2022/08/17 04:23:38;;;;;;;;;;;;;;;24.82;62.10;97359.31;5118659;28;19925;-61
2022/08/17 04:26:04;;;;;;;;;;;;;;;24.95;61.64;97352.47;5118556;28;19920;-61
2022/08/17 04:28:31;;;;;;;;;;;;;;;25.09;61.16;97358.13;5103166;28;19959;-61
2022/08/17 04:30:58;;;;;;;;;;;;;;;24.92;61.32;97353.19;5122175;28;19966;-60
2022/08/17 04:33:26;;;;;;;;;;;;;;;25.10;61.06;97355.00;5120765;28;20378;-60
2022/08/17 04:35:53;;;;;;;;;;;;;;;25.29;60.36;97358.75;5118591;28;19987;-61
2022/08/17 04:38:21;;;;;;;;;;;;;;;25.37;60.10;97360.44;5122134;28;19927;-61
2022/08/17 04:43:32;;;;;;;;;;;;;;;25.54;59.49;97368.06;5123357;28;19938;-59
2022/08/17 04:46:01;;;;;;;;;;;;;;;25.48;59.16;97373.06;5122467;28;19966;-60
2022/08/17 04:48:28;;;;;;;;;;;;;;;25.53;59.11;97374.72;5124300;28;19924;-61
2022/08/17 04:50:55;;;;;;;;;;;;;;;25.49;59.29;97369.19;5125839;28;19928;-60
2022/08/17 04:53:21;;;;;;;;;;;;;;;25.42;59.38;97388.22;5124732;28;19924;-61
2022/08/17 04:55:48;;;;;;;;;;;;;;;25.37;59.73;97372.16;5132214;27;19971;-60
2022/08/17 04:58:14;;;;;;;;;;;;;;;25.14;60.30;97366.78;5122175;28;19935;-61
2022/08/17 05:00:40;;;;;;;;;;;;;;;25.28;60.27;97379.84;5125577;28;19931;-61
2022/08/17 05:03:08;;;;;;;;;;;;;;;25.34;60.00;97383.84;5125356;28;19975;-60
2022/08/17 05:05:35;;;;;;;;;;;;;;;25.31;60.01;97392.78;5122270;28;19924;-60
2022/08/17 05:08:03;;;;;;;;;;;;;;;24.85;61.83;97383.94;5121880;28;19964;-60
2022/08/17 05:10:30;;;;;;;;;;;;;;;24.45;64.09;97387.19;5124152;28;19924;-60
2022/08/17 05:12:58;;;;;;;;;;;;;;;24.29;65.54;97381.09;5125276;28;19931;-63
2022/08/17 05:15:24;;;;;;;;;;;;;;;24.27;67.21;97383.38;5123660;28;19924;-61
2022/08/17 05:17:51;;;;;;;;;;;;;;;24.76;65.18;97382.63;5121801;28;19932;-60
2022/08/17 05:20:20;;;;;;;;;;;;;;;24.59;65.37;97381.97;5122061;28;19931;-61
2022/08/17 05:22:48;;;;;;;;;;;;;;;24.87;64.31;97378.91;5125171;28;19924;-61
2022/08/17 05:25:15;;;;;;;;;;;;;;;24.89;64.01;97381.25;5134868;27;19930;-60
2022/08/17 05:27:41;;;;;;;;;;;;;;;25.02;63.43;97383.41;5121655;28;19963;-60
2022/08/17 05:30:08;;;;;;;;;;;;;;;24.54;65.71;97382.25;5121395;28;19955;-62
2022/08/17 05:32:35;;;;;;;;;;;;;;;24.90;64.36;97388.31;5124400;28;19969;-60
2022/08/17 05:35:01;;;;;;;;;;;;;;;24.67;65.23;97389.09;5125038;28;19946;-61
2022/08/17 05:37:29;;;;;;;;;;;;;;;24.94;64.18;97386.41;5122673;28;19924;-60
2022/08/17 05:39:55;;;;;;;;;;;;;;;24.82;64.50;97390.13;5121443;28;19955;-61
2022/08/17 05:42:22;;;;;;;;;;;;;;;24.83;64.96;97380.78;5122309;28;19962;-61
2022/08/17 05:44:49;;;;;;;;;;;;;;;24.67;65.91;97389.09;5124786;28;19947;-60
2022/08/17 05:47:16;;;;;;;;;;;;;;;24.48;67.42;97382.97;5124335;28;19963;-60
2022/08/17 05:49:42;;;;;;;;;;;;;;;24.93;65.03;97374.69;5120707;28;19963;-61
2022/08/17 05:52:15;;;;;;;;;;;;;;;25.13;64.27;97383.53;5121058;28;19927;-60
2022/08/17 05:54:49;;;;;;;;;;;;;;;25.35;63.57;97379.91;5130004;27;19952;-62
2022/08/17 05:57:32;;;;;;;;;;;;;;;25.25;64.13;97395.03;5124201;28;19959;-61
2022/08/17 06:00:04;;;;;;;;;;;;;;;25.51;62.88;97387.94;5121029;28;19959;-61
2022/08/17 06:02:36;;;;;;;;;;;;;;;25.34;64.05;97374.84;5123124;28;19924;-60
2022/08/17 06:05:14;;;;;;;;;;;;;;;25.41;64.12;97375.69;5124558;28;19923;-60
2022/08/17 06:07:45;;;;;;;;;;;;;;;25.40;64.16;97385.06;5121019;28;19920;-61
2022/08/17 06:10:17;;;;;;;;;;;;;;;25.45;64.41;97383.94;5120841;28;19970;-60
2022/08/17 06:12:53;;;;;;;;;;;;;;;25.83;63.02;97378.16;5120887;28;19959;-61
2022/08/17 06:15:26;;;;;;;;;;;;;;;26.02;62.29;97382.66;5121609;28;19924;-61
2022/08/17 06:17:54;;;;;;;;;;;;;;;26.28;61.23;97377.03;5124518;28;19936;-61
2022/08/17 06:20:21;;;;;;;;;;;;;;;26.36;61.08;97384.16;5123188;28;19930;-60
2022/08/17 06:22:49;;;;;;;;;;;;;;;26.40;60.54;97384.97;5120862;28;19924;-61
2022/08/17 06:25:18;;;;;;;;;;;;;;;26.53;60.38;97375.28;5133883;27;19975;-60
2022/08/17 06:27:48;;;;;;;;;;;;;;;26.78;59.42;97368.03;5102413;28;20300;-60
2022/08/17 06:30:15;;;;;;;;;;;;;;;26.91;59.01;97371.28;5120224;28;20301;-60
2022/08/17 06:32:45;;;;;;;;;;;;;;;26.51;59.85;97374.91;5123633;28;19924;-60
2022/08/17 06:35:13;;;;;;;;;;;;;;;26.53;60.45;97372.56;5123562;28;19959;-61
2022/08/17 06:37:48;;;;;;;;;;;;;;;26.80;59.79;97373.94;5120061;28;19987;-61
2022/08/17 06:40:19;;;;;;;;;;;;;;;26.94;59.28;97369.72;5120155;28;19928;-62
2022/08/17 06:42:49;;;;;;;;;;;;;;;27.00;59.22;97369.00;5123729;28;19970;-61
2022/08/17 06:45:17;;;;;;;;;;;;;;;27.31;58.56;97379.31;5123251;28;19996;-61
2022/08/17 06:47:47;;;;;;;;;;;;;;;27.44;57.75;97379.81;5120084;28;19979;-60
2022/08/17 06:50:17;;;;;;;;;;;;;;;27.45;57.80;97373.13;5119740;28;19971;-61
2022/08/17 06:52:48;;;;;;;;;;;;;;;27.12;58.74;97376.09;5119840;28;19924;-62
2022/08/17 06:55:20;;;;;;;;;;;;;;;27.47;58.10;97379.03;5133117;27;19928;-61
2022/08/17 06:57:49;;;;;;;;;;;;;;;27.24;57.29;97386.72;5119677;28;19931;-60
2022/08/17 07:00:17;;;;;;;;;;;;;;;26.81;58.81;97386.50;5118981;28;19924;-62
2022/08/17 07:02:47;;;;;;;;;;;;;;;26.89;59.27;97389.28;5123033;28;19934;-61
2022/08/17 07:05:16;;;;;;;;;;;;;;;26.86;59.07;97392.78;5123033;28;19931;-60
2022/08/17 07:08:02;;;;;;;;;;;;;;;27.40;58.55;97395.41;5119547;28;19989;-61
2022/08/17 07:10:34;;;;;;;;;;;;;;;27.34;58.51;97394.22;5121370;28;20731;-61
2022/08/17 07:13:07;;;;;;;;;;;;;;;27.29;58.56;97394.59;5122779;28;19928;-60
2022/08/17 07:15:39;;;;;;;;;;;;;;;27.15;58.38;97403.53;5120177;28;19943;-61
2022/08/17 07:18:05;;;;;;;;;;;;;;;27.73;57.76;97402.66;5119397;28;19931;-61
2022/08/17 07:20:32;;;;;;;;;;;;;;;28.08;57.08;97396.47;5121951;28;20001;-60
2022/08/17 07:23:00;;;;;;;;;;;;;;;27.97;55.35;97406.63;5122848;28;19923;-60
2022/08/17 07:25:29;;;;;;;;;;;;;;;27.98;56.75;97408.97;5131011;27;19942;-60
2022/08/17 07:27:59;;;;;;;;;;;;;;;28.19;55.81;97402.78;5119298;28;19928;-60
2022/08/17 07:30:27;;;;;;;;;;;;;;;28.09;56.19;97398.84;5102746;28;19946;-60
2022/08/17 07:32:56;;;;;;;;;;;;;;;28.32;55.98;97399.25;5122833;28;19966;-60
2022/08/17 07:35:31;;;;;;;;;;;;;;;28.51;55.28;97403.56;5121479;28;19923;-61
2022/08/17 07:38:09;;;;;;;;;;;;;;;28.22;54.45;97404.72;5118680;28;19954;-60
2022/08/17 07:40:36;;;;;;;;;;;;;;;28.30;55.50;97406.31;5121925;28;19967;-60
2022/08/17 07:43:06;;;;;;;;;;;;;;;28.24;55.31;97402.38;5122455;28;19981;-61
2022/08/17 07:48:19;;;;;;;;;;;;;;;28.50;54.86;97415.75;5119216;28;20868;-60
2022/08/17 07:50:46;;;;;;;;;;;;;;;28.44;53.56;97417.31;5104420;28;19959;-61
2022/08/17 07:53:15;;;;;;;;;;;;;;;28.19;54.86;97422.78;5122577;28;19969;-60
2022/08/17 07:55:41;;;;;;;;;;;;;;;28.12;54.27;97406.28;5129070;28;20248;-60
2022/08/17 07:58:15;;;;;;;;;;;;;;;27.88;53.93;97412.47;5119103;28;19924;-61
2022/08/17 08:00:41;;;;;;;;;;;;;;;27.57;54.65;97415.91;5119200;28;20020;-61
2022/08/17 08:03:17;;;;;;;;;;;;;;;27.28;54.89;97421.22;5119067;28;19931;-60
2022/08/17 08:05:58;;;;;;;;;;;;;;;27.23;55.13;97420.81;5110455;28;19960;-61
2022/08/17 08:08:27;;;;;;;;;;;;;;;27.33;55.07;97422.78;5110492;28;20326;-60
2022/08/17 08:10:59;;;;;;;;;;;;;;;27.40;55.34;97433.03;5111123;28;19947;-60
2022/08/17 08:13:29;;;;;;;;;;;;;;;27.58;54.19;97433.91;5114669;28;19935;-60
2022/08/17 08:15:56;;;;;;;;;;;;;;;27.33;54.34;97429.06;5130721;28;19928;-61
2022/08/17 08:18:24;;;;;;;;;;;;;;;27.09;54.46;97426.97;5114423;28;19928;-61
2022/08/17 08:20:53;;;;;;;;;;;;;;;26.98;54.71;97425.34;5114319;28;19935;-60
2022/08/17 08:23:33;;;;;;;;;;;;;;;26.95;54.47;97437.06;5096078;28;19924;-61
2022/08/17 08:26:07;;;;;;;;;;;;;;;26.88;54.94;97434.28;5132823;27;19924;-60
2022/08/17 08:28:42;;;;;;;;;;;;;;;26.74;55.21;97434.91;5125567;28;19938;-61
2022/08/17 08:31:12;;;;;;;;;;;;;;;26.60;55.60;97432.88;5126212;28;19924;-61
2022/08/17 08:33:44;;;;;;;;;;;;;;;26.54;55.83;97428.13;5122885;28;19935;-61
2022/08/17 08:36:22;;;;;;;;;;;;;;;26.79;55.78;97413.47;5122532;28;19984;-61
2022/08/17 08:38:53;;;;;;;;;;;;;;;27.14;55.71;97414.88;5122574;28;19928;-61
2022/08/17 08:41:30;;;;;;;;;;;;;;;27.25;54.67;97421.19;5123163;28;20391;-61
2022/08/17 08:44:07;;;;;;;;;;;;;;;27.14;54.53;97420.38;5125878;28;20004;-61
2022/08/17 08:46:39;;;;;;;;;;;;;;;27.07;54.36;97428.53;5122863;28;19947;-61
2022/08/17 08:49:21;;;;;;;;;;;;;;;27.06;54.32;97424.22;5122069;28;19932;-61
2022/08/17 08:51:51;;;;;;;;;;;;;;;27.17;54.25;97434.06;5122117;28;19924;-61
2022/08/17 08:54:27;;;;;;;;;;;;;;;27.32;53.88;97429.47;5132638;27;19950;-61
2022/08/17 08:56:57;;;;;;;;;;;;;;;27.52;53.31;97432.72;5107366;28;19953;-61
2022/08/17 08:59:28;;;;;;;;;;;;;;;27.72;53.05;97432.03;5123948;28;19988;-61
2022/08/17 09:01:58;;;;;;;;;;;;;;;27.69;52.70;97427.31;5121805;28;20537;-61
2022/08/17 09:04:39;;;;;;;;;;;;;;;27.83;52.17;97418.34;5123202;28;19969;-61
2022/08/17 09:07:11;;;;;;;;;;;;;;;27.82;52.71;97425.00;5125299;28;19955;-61
2022/08/17 09:09:42;;;;;;;;;;;;;;;27.82;51.38;97423.03;5121805;28;19960;-61
2022/08/17 09:12:10;;;;;;;;;;;;;;;27.89;51.46;97420.31;5121709;28;19963;-61
2022/08/17 09:14:40;;;;;;;;;;;;;;;27.93;50.26;97422.28;5124800;28;19924;-61
2022/08/17 09:17:11;;;;;;;;;;;;;;;28.08;50.25;97416.47;5125261;28;19985;-60
2022/08/17 09:19:40;;;;;;;;;;;;;;;28.15;49.36;97410.22;5122005;28;19989;-62
2022/08/17 09:22:10;;;;;;;;;;;;;;;28.18;50.07;97415.72;5121539;28;19924;-61
2022/08/17 09:24:40;;;;;;;;;;;;;;;28.28;48.81;97414.94;5134507;27;19930;-63
2022/08/17 09:27:08;;;;;;;;;;;;;;;28.37;48.69;97420.84;5125197;28;20014;-61
2022/08/17 09:29:38;;;;;;;;;;;;;;;28.49;48.13;97410.63;5121801;28;19932;-62
2022/08/17 09:32:09;;;;;;;;;;;;;;;28.60;48.45;97405.91;5121034;28;19968;-61
2022/08/17 09:34:39;;;;;;;;;;;;;;;28.59;47.88;97396.13;5124270;28;19998;-60
2022/08/17 09:37:16;;;;;;;;;;;;;;;28.74;48.35;97398.50;5124692;28;19924;-61
2022/08/17 09:39:48;;;;;;;;;;;;;;;28.99;49.00;97392.16;5121488;28;19966;-61
2022/08/17 09:42:18;;;;;;;;;;;;;;;29.33;48.58;97396.81;5121280;28;19935;-61
2022/08/17 09:44:49;;;;;;;;;;;;;;;29.30;46.86;97383.06;5124876;28;19923;-62
2022/08/17 09:47:21;;;;;;;;;;;;;;;29.33;48.00;97383.06;5124345;28;19983;-61
2022/08/17 09:49:49;;;;;;;;;;;;;;;29.52;47.80;97387.31;5120876;28;19959;-62
2022/08/17 09:52:18;;;;;;;;;;;;;;;29.72;47.97;97382.09;5121209;28;19974;-62
2022/08/17 09:54:45;;;;;;;;;;;;;;;29.48;46.40;97383.78;5134515;27;19955;-62
2022/08/17 09:57:21;;;;;;;;;;;;;;;29.61;47.59;97378.63;5124248;28;19959;-61
2022/08/17 09:59:55;;;;;;;;;;;;;;;29.67;46.41;97379.78;5120940;28;19924;-61
2022/08/17 10:02:39;;;;;;;;;;;;;;;29.54;47.06;97373.94;5121795;28;19948;-61
2022/08/17 10:05:08;;;;;;;;;;;;;;;29.64;46.04;97366.81;5124277;28;19951;-62
2022/08/17 10:07:36;;;;;;;;;;;;;;;29.50;45.12;97364.91;5121517;28;19932;-61
2022/08/17 10:10:06;;;;;;;;;;;;;;;29.56;46.63;97368.81;5120485;28;19931;-63
2022/08/17 10:12:38;;;;;;;;;;;;;;;30.14;46.42;97378.34;5123190;28;19942;-61
2022/08/17 10:15:12;;;;;;;;;;;;;;;30.29;46.33;97369.56;5105902;28;19977;-61
2022/08/17 10:17:45;;;;;;;;;;;;;;;30.41;46.21;97371.88;5120253;28;19938;-62
2022/08/17 10:20:13;;;;;;;;;;;;;;;30.30;44.42;97370.34;5119908;28;19983;-62
2022/08/17 10:28:14;;;;;;;;;;;;;;;29.97;41.95;97366.25;5102174;28;19931;-61
2022/08/17 10:30:46;;;;;;;;;;;;;;;30.07;41.88;97357.16;5119872;28;19930;-62
2022/08/17 10:33:15;;;;;;;;;;;;;;;30.21;42.63;97357.03;5120028;28;19935;-62
2022/08/17 10:35:48;;;;;;;;;;;;;;;30.20;43.71;97361.00;5119866;28;19996;-61
2022/08/17 10:38:30;;;;;;;;;;;;;;;30.56;43.61;97366.22;5119958;28;19928;-62
2022/08/17 10:40:59;;;;;;;;;;;;;;;30.66;43.09;97366.13;5123321;28;19970;-62
2022/08/17 10:43:33;;;;;;;;;;;;;;;30.56;40.59;97369.78;5121830;28;19987;-61
2022/08/17 10:46:03;;;;;;;;;;;;;;;30.57;40.68;97362.28;5119911;28;19991;-61
2022/08/17 10:48:35;;;;;;;;;;;;;;;30.63;40.54;97364.19;5122261;28;19924;-62
2022/08/17 10:51:06;;;;;;;;;;;;;;;30.46;40.82;97367.88;5123301;28;19924;-62
2022/08/17 10:53:51;;;;;;;;;;;;;;;30.53;40.51;97359.56;5120748;28;19924;-61
2022/08/17 10:56:20;;;;;;;;;;;;;;;30.50;40.34;97360.38;5120257;28;20484;-62
2022/08/17 10:58:48;;;;;;;;;;;;;;;30.44;40.00;97353.72;5123584;28;19945;-63
2022/08/17 11:01:15;;;;;;;;;;;;;;;30.43;40.02;97355.69;5123393;28;19928;-61
2022/08/17 11:03:53;;;;;;;;;;;;;;;30.62;40.15;97350.81;5119878;28;19924;-61
2022/08/17 11:06:23;;;;;;;;;;;;;;;30.64;40.80;97346.47;5120691;28;19924;-62
2022/08/17 11:09:02;;;;;;;;;;;;;;;30.79;41.17;97349.88;5123487;28;19975;-62
2022/08/17 11:11:44;;;;;;;;;;;;;;;30.94;40.87;97341.09;5121323;28;20462;-62
2022/08/17 11:14:20;;;;;;;;;;;;;;;30.95;40.22;97347.34;5119893;28;19924;-62
2022/08/17 11:16:56;;;;;;;;;;;;;;;31.00;41.23;97335.88;5119821;28;19924;-61
2022/08/17 11:19:40;;;;;;;;;;;;;;;31.23;40.15;97335.22;5120709;28;19930;-63
2022/08/17 11:22:15;;;;;;;;;;;;;;;31.35;40.70;97323.66;5122952;28;20003;-61
2022/08/17 11:24:46;;;;;;;;;;;;;;;31.10;39.33;97318.44;5128767;27;19991;-61
2022/08/17 11:27:21;;;;;;;;;;;;;;;31.14;39.18;97319.16;5123014;28;20007;-61
2022/08/17 11:29:50;;;;;;;;;;;;;;;31.35;39.89;97323.66;5110933;28;20035;-61
2022/08/17 11:32:31;;;;;;;;;;;;;;;31.34;38.15;97316.56;5092926;28;19975;-62
2022/08/17 11:35:10;;;;;;;;;;;;;;;31.16;38.08;97310.50;5110885;28;19991;-62
2022/08/17 11:37:49;;;;;;;;;;;;;;;31.33;36.16;97315.00;5110508;28;19924;-62
2022/08/17 11:40:32;;;;;;;;;;;;;;;31.35;36.56;97320.91;5110551;28;19938;-62
2022/08/17 11:43:13;;;;;;;;;;;;;;;31.24;37.85;97317.47;5110724;28;19962;-62
2022/08/17 11:45:52;;;;;;;;;;;;;;;31.37;37.12;97324.81;5110230;28;19931;-61
2022/08/17 11:54:09;;;;;;;;;;;;;;;31.54;38.87;97342.34;5051014;28;19925;-61
2022/08/17 11:56:40;;;;;;;;;;;;;;;31.59;38.94;97343.88;5098560;28;19923;-61
2022/08/17 11:59:21;;;;;;;;;;;;;;;31.28;40.14;97345.81;5122429;28;20338;-61
2022/08/17 12:01:51;;;;;;;;;;;;;;;31.70;39.38;97350.81;5102854;28;19979;-61
2022/08/17 12:04:23;;;;;;;;;;;;;;;31.86;39.12;97339.16;5118778;28;19995;-61
2022/08/17 12:06:53;;;;;;;;;;;;;;;32.11;38.12;97342.34;5122529;28;19965;-63
2022/08/17 12:09:23;;;;;;;;;;;;;;;32.14;38.59;97346.25;5121465;28;19973;-60
2022/08/17 12:11:51;;;;;;;;;;;;;;;32.03;38.22;97347.19;5118851;28;19920;-65
2022/08/17 12:14:21;;;;;;;;;;;;;;;31.67;37.62;97345.31;5101129;28;19959;-61
2022/08/17 12:16:57;;;;;;;;;;;;;;;31.60;38.10;97337.91;5122269;28;19934;-61
2022/08/17 12:19:26;;;;;;;;;;;;;;;31.62;38.76;97326.47;5120804;28;19934;-63
2022/08/17 12:21:56;;;;;;;;;;;;;;;31.62;39.72;97323.72;5117756;28;19924;-63
2022/08/17 12:24:30;;;;;;;;;;;;;;;31.79;37.85;97319.91;5129560;28;19930;-63
2022/08/17 12:26:57;;;;;;;;;;;;;;;31.88;37.65;97326.47;5122339;28;19927;-61
2022/08/17 12:29:24;;;;;;;;;;;;;;;31.87;37.11;97324.16;5120940;28;20007;-62
2022/08/17 12:31:53;;;;;;;;;;;;;;;32.02;36.90;97326.28;5118869;28;19967;-61
2022/08/17 12:34:20;;;;;;;;;;;;;;;31.96;38.11;97318.88;5119283;28;19928;-61
2022/08/17 12:36:49;;;;;;;;;;;;;;;31.55;39.30;97316.31;5122129;28;20011;-62
2022/08/17 12:39:20;;;;;;;;;;;;;;;31.79;39.34;97317.94;5121935;28;19928;-62
2022/08/17 12:41:47;;;;;;;;;;;;;;;32.09;38.81;97314.38;5118624;28;19925;-62
2022/08/17 12:44:14;;;;;;;;;;;;;;;32.29;37.80;97325.47;5118620;28;19924;-62
2022/08/17 12:46:55;;;;;;;;;;;;;;;32.34;35.96;97316.72;5110284;28;19959;-61
2022/08/17 12:49:26;;;;;;;;;;;;;;;32.30;36.70;97311.25;5109951;28;19931;-62
2022/08/17 12:51:55;;;;;;;;;;;;;;;32.17;36.92;97309.50;5109955;28;20533;-62
2022/08/17 12:54:30;;;;;;;;;;;;;;;31.89;38.73;97314.25;5121315;27;19965;-62
2022/08/17 12:56:59;;;;;;;;;;;;;;;31.95;37.31;97318.09;5121966;28;20012;-62
2022/08/17 12:59:26;;;;;;;;;;;;;;;31.90;38.49;97321.34;5122907;28;19924;-62
2022/08/17 13:01:52;;;;;;;;;;;;;;;32.07;37.61;97317.53;5103854;28;19924;-62
2022/08/17 13:04:19;;;;;;;;;;;;;;;31.89;38.07;97318.97;5122384;28;19924;-62
2022/08/17 13:06:47;;;;;;;;;;;;;;;32.14;36.25;97318.63;5125445;28;19949;-62
2022/08/17 13:09:15;;;;;;;;;;;;;;;32.20;36.53;97311.41;5125573;28;19931;-62
2022/08/17 13:11:48;;;;;;;;;;;;;;;32.34;35.34;97305.69;5121866;28;19955;-62
2022/08/17 13:14:17;;;;;;;;;;;;;;;32.47;34.84;97310.16;5121843;28;19927;-61
2022/08/17 13:16:47;;;;;;;;;;;;;;;32.22;36.76;97307.03;5113467;28;19924;-63
2022/08/17 13:19:14;;;;;;;;;;;;;;;32.42;37.76;97305.13;5113377;28;19988;-62
2022/08/17 13:21:46;;;;;;;;;;;;;;;32.47;37.48;97309.38;5121666;28;19920;-62
2022/08/17 13:24:16;;;;;;;;;;;;;;;32.42;35.47;97302.38;5131316;27;19923;-62
2022/08/17 13:26:44;;;;;;;;;;;;;;;32.27;34.60;97295.53;5121555;28;19924;-62
2022/08/17 13:29:19;;;;;;;;;;;;;;;32.55;34.43;97294.25;5121497;28;19924;-62